createdAt,value
2019-03-31T00:01:15.264Z,75.39
2019-03-31T00:03:42.496Z,75.49
2019-03-31T00:06:09.810Z,75.79
2019-03-31T00:08:37.141Z,75.57
2019-03-31T00:11:04.569Z,76.08
2019-03-31T00:13:31.895Z,74.52
2019-03-31T00:15:59.306Z,74.79
2019-03-31T00:18:26.645Z,74.43
2019-03-31T00:20:53.855Z,75.00
2019-03-31T00:23:21.191Z,75.46
2019-03-31T00:25:50.765Z,75.77
2019-03-31T00:28:18.210Z,75.57
2019-03-31T00:30:45.588Z,74.82
2019-03-31T00:33:12.928Z,75.01
2019-03-31T00:35:40.147Z,76.01
2019-03-31T00:38:07.475Z,75.85
2019-03-31T00:40:34.695Z,76.27
2019-03-31T00:43:02.037Z,75.66
2019-03-31T00:45:29.333Z,75.52
2019-03-31T00:47:56.561Z,75.29
2019-03-31T00:50:23.863Z,75.09
2019-03-31T00:52:51.190Z,75.01
2019-03-31T00:55:18.491Z,75.11
2019-03-31T00:57:45.842Z,75.14
2019-03-31T01:00:36.402Z,75.13
2019-03-31T01:03:04.177Z,74.99
2019-03-31T01:05:31.890Z,75.19
2019-03-31T01:08:00.317Z,75.64
2019-03-31T01:10:28.945Z,76.31
2019-03-31T01:12:57.184Z,76.34
2019-03-31T01:15:24.979Z,76.42
2019-03-31T01:17:52.294Z,75.88
2019-03-31T01:20:19.708Z,74.94
2019-03-31T01:22:47.296Z,75.94
2019-03-31T01:25:15.830Z,76.55
2019-03-31T01:27:43.087Z,77.27
2019-03-31T01:30:11.577Z,77.20
2019-03-31T01:32:39.090Z,77.87
2019-03-31T01:35:09.046Z,78.20
2019-03-31T01:37:37.011Z,78.55
2019-03-31T01:40:04.427Z,79.22
2019-03-31T01:42:31.886Z,79.48
2019-03-31T01:44:59.226Z,78.77
2019-03-31T01:47:26.584Z,79.49
2019-03-31T01:49:53.893Z,80.27
2019-03-31T01:52:21.251Z,80.98
2019-03-31T01:54:48.615Z,81.83
2019-03-31T01:57:15.948Z,82.05
2019-03-31T01:59:43.299Z,82.17
2019-03-31T02:02:15.132Z,82.57
2019-03-31T02:04:42.488Z,83.31
2019-03-31T02:07:10.125Z,84.02
2019-03-31T02:09:37.490Z,84.34
2019-03-31T02:12:04.813Z,84.57
2019-03-31T02:14:32.160Z,85.48
2019-03-31T02:16:59.498Z,85.04
2019-03-31T02:19:26.868Z,84.88
2019-03-31T02:21:54.213Z,85.17
2019-03-31T02:24:21.576Z,85.03
2019-03-31T02:26:49.006Z,84.96
2019-03-31T02:29:16.359Z,84.45
2019-03-31T02:31:43.709Z,83.45
2019-03-31T02:34:11.052Z,82.92
2019-03-31T02:36:38.391Z,83.23
2019-03-31T02:39:07.221Z,83.41
2019-03-31T02:41:35.534Z,83.67
2019-03-31T02:44:03.386Z,83.88
2019-03-31T02:46:30.707Z,83.80
2019-03-31T02:48:58.049Z,84.19
2019-03-31T02:51:25.852Z,84.18
2019-03-31T02:53:53.707Z,84.30
2019-03-31T02:56:21.912Z,84.41
2019-03-31T02:58:50.918Z,84.49
2019-03-31T03:01:21.178Z,84.62
2019-03-31T03:03:50.323Z,84.77
2019-03-31T03:06:19.913Z,84.81
2019-03-31T03:09:12.526Z,85.39
2019-03-31T03:11:41.560Z,85.39
2019-03-31T03:14:09.670Z,85.17
2019-03-31T03:16:37.012Z,85.23
2019-03-31T03:19:04.339Z,85.24
2019-03-31T03:21:31.684Z,85.58
2019-03-31T03:23:58.918Z,85.79
2019-03-31T03:26:26.248Z,85.79
2019-03-31T03:28:53.654Z,85.58
2019-03-31T03:31:21.130Z,85.76
2019-03-31T03:33:48.521Z,86.34
2019-03-31T03:36:15.965Z,87.00
2019-03-31T03:38:43.545Z,87.00
2019-03-31T03:41:10.885Z,86.04
2019-03-31T03:43:54.104Z,85.94
2019-03-31T03:46:07.488Z,85.88
2019-03-31T03:48:34.846Z,85.89
2019-03-31T03:51:02.193Z,86.29
2019-03-31T03:53:29.503Z,86.32
2019-03-31T03:55:56.865Z,86.18
2019-03-31T03:58:24.191Z,86.09
2019-03-31T04:00:51.411Z,84.50
2019-03-31T04:03:29.818Z,84.75
2019-03-31T04:05:47.833Z,85.06
2019-03-31T04:08:15.153Z,84.97
2019-03-31T04:11:31.208Z,84.27
2019-03-31T04:13:58.528Z,82.48
2019-03-31T04:16:26.072Z,81.99
2019-03-31T04:18:53.378Z,82.84
2019-03-31T04:21:20.723Z,83.73
2019-03-31T04:23:48.103Z,84.11
2019-03-31T04:26:15.418Z,83.58
2019-03-31T04:28:43.402Z,83.12
2019-03-31T04:31:10.746Z,83.05
2019-03-31T04:33:50.637Z,83.02
2019-03-31T04:36:07.270Z,83.48
2019-03-31T04:38:34.575Z,83.59
2019-03-31T04:41:01.893Z,83.56
2019-03-31T04:43:29.113Z,83.85
2019-03-31T04:45:56.342Z,84.16
2019-03-31T04:48:23.572Z,84.33
2019-03-31T04:50:52.264Z,84.07
2019-03-31T04:53:19.727Z,83.70
2019-03-31T04:55:47.029Z,82.39
2019-03-31T04:58:14.413Z,81.60
2019-03-31T05:00:41.747Z,81.16
2019-03-31T05:03:09.059Z,81.47
2019-03-31T05:05:36.271Z,81.82
2019-03-31T05:08:03.973Z,82.26
2019-03-31T05:10:31.178Z,81.99
2019-03-31T05:12:58.401Z,81.62
2019-03-31T05:15:25.732Z,81.74
2019-03-31T05:17:53.089Z,80.33
2019-03-31T05:20:20.404Z,80.38
2019-03-31T05:22:47.732Z,79.78
2019-03-31T05:25:15.043Z,79.98
2019-03-31T05:27:42.417Z,79.97
2019-03-31T05:30:09.856Z,80.07
2019-03-31T05:32:37.050Z,80.23
2019-03-31T05:35:04.765Z,79.89
2019-03-31T05:37:32.080Z,79.82
2019-03-31T05:39:59.296Z,80.15
2019-03-31T05:42:26.508Z,80.22
2019-03-31T05:44:53.820Z,80.68
2019-03-31T05:47:21.080Z,80.98
2019-03-31T05:49:48.392Z,81.10
2019-03-31T05:52:15.733Z,81.10
2019-03-31T05:54:43.037Z,81.59
2019-03-31T05:57:10.405Z,81.81
2019-03-31T05:59:37.616Z,81.77
2019-03-31T06:02:05.149Z,81.47
2019-03-31T06:04:33.620Z,81.52
2019-03-31T06:07:01.119Z,81.95
2019-03-31T06:09:28.425Z,81.89
2019-03-31T06:11:55.764Z,82.15
2019-03-31T06:14:23.110Z,82.22
2019-03-31T06:16:50.421Z,81.76
2019-03-31T06:19:17.657Z,80.77
2019-03-31T06:21:45.019Z,80.76
2019-03-31T06:24:12.293Z,81.00
2019-03-31T06:26:39.625Z,80.71
2019-03-31T06:29:06.828Z,79.54
2019-03-31T06:31:34.080Z,79.53
2019-03-31T06:34:01.426Z,79.62
2019-03-31T06:36:28.739Z,79.55
2019-03-31T06:38:56.288Z,79.87
2019-03-31T06:41:23.519Z,79.77
2019-03-31T06:43:51.853Z,79.06
2019-03-31T06:46:19.184Z,78.76
2019-03-31T06:48:46.436Z,78.15
2019-03-31T06:51:16.925Z,77.20
2019-03-31T06:53:42.879Z,76.44
2019-03-31T06:56:10.207Z,75.93
2019-03-31T06:58:37.456Z,75.35
2019-03-31T07:01:04.673Z,73.05
2019-03-31T07:03:32.048Z,73.25
2019-03-31T07:05:59.368Z,72.35
2019-03-31T07:08:26.703Z,73.53
2019-03-31T07:10:54.059Z,73.87
2019-03-31T07:13:21.296Z,72.19
2019-03-31T07:15:48.609Z,73.05
2019-03-31T07:18:16.107Z,73.38
2019-03-31T07:20:43.544Z,72.67
2019-03-31T07:23:10.900Z,72.72
2019-03-31T07:25:38.203Z,72.14
2019-03-31T07:28:05.582Z,71.81
2019-03-31T07:30:32.900Z,72.15
2019-03-31T07:33:00.222Z,71.14
2019-03-31T07:35:27.546Z,71.49
2019-03-31T07:37:54.874Z,71.53
2019-03-31T07:40:22.672Z,70.19
2019-03-31T07:42:51.244Z,69.49
2019-03-31T07:45:19.236Z,67.89
2019-03-31T07:47:46.465Z,65.83
2019-03-31T07:50:14.668Z,65.27
2019-03-31T07:52:41.889Z,64.56
2019-03-31T07:55:09.741Z,64.18
2019-03-31T07:57:37.094Z,61.62
2019-03-31T08:00:05.969Z,62.24
2019-03-31T08:02:33.163Z,61.01
2019-03-31T08:05:00.481Z,61.02
2019-03-31T08:07:27.711Z,61.99
2019-03-31T08:09:54.918Z,61.62
2019-03-31T08:12:22.154Z,60.71
2019-03-31T08:14:49.466Z,62.22
2019-03-31T08:17:16.803Z,62.63
2019-03-31T08:19:44.123Z,63.14
2019-03-31T08:22:11.448Z,61.01
2019-03-31T08:24:44.155Z,61.36
2019-03-31T08:27:14.598Z,61.46
2019-03-31T08:29:42.286Z,60.92
2019-03-31T08:32:09.820Z,61.42
2019-03-31T08:34:37.592Z,61.68
2019-03-31T08:37:05.002Z,61.70
2019-03-31T08:39:32.438Z,61.81
2019-03-31T08:41:59.655Z,62.74
2019-03-31T08:44:26.878Z,62.47
2019-03-31T08:46:54.195Z,62.37
2019-03-31T08:49:21.619Z,63.29
2019-03-31T08:51:48.965Z,64.40
2019-03-31T08:54:16.204Z,63.25
2019-03-31T08:56:43.440Z,61.64
2019-03-31T08:59:10.785Z,60.95
2019-03-31T09:01:38.093Z,61.26
2019-03-31T09:04:05.332Z,60.08
2019-03-31T09:06:32.632Z,60.75
2019-03-31T09:08:59.951Z,59.60
2019-03-31T09:11:27.160Z,61.14
2019-03-31T09:13:54.475Z,58.89
2019-03-31T09:16:21.787Z,57.04
2019-03-31T09:18:49.139Z,58.40
2019-03-31T09:21:16.474Z,56.10
2019-03-31T09:23:43.802Z,54.60
2019-03-31T09:26:11.124Z,54.01
2019-03-31T09:28:38.450Z,54.78
2019-03-31T09:31:05.762Z,56.79
2019-03-31T09:33:33.103Z,57.91
2019-03-31T09:36:00.412Z,59.15
2019-03-31T09:38:27.746Z,59.59
2019-03-31T09:40:55.068Z,59.71
2019-03-31T09:43:22.401Z,59.90
2019-03-31T09:45:49.725Z,60.06
2019-03-31T09:48:16.963Z,59.82
2019-03-31T09:50:44.276Z,60.11
2019-03-31T09:53:11.588Z,60.67
2019-03-31T09:55:38.923Z,60.97
2019-03-31T09:58:06.250Z,60.23
2019-03-31T10:00:44.419Z,59.39
2019-03-31T10:03:11.935Z,59.54
2019-03-31T10:05:39.277Z,59.56
2019-03-31T10:08:06.570Z,59.96
2019-03-31T10:10:34.196Z,60.67
2019-03-31T10:13:01.409Z,60.02
2019-03-31T10:15:28.740Z,58.33
2019-03-31T10:17:56.045Z,57.67
2019-03-31T10:20:23.399Z,56.93
2019-03-31T10:22:50.716Z,55.62
2019-03-31T10:25:18.037Z,53.96
2019-03-31T10:27:45.256Z,54.94
2019-03-31T10:30:14.382Z,54.47
2019-03-31T10:32:41.603Z,56.27
2019-03-31T10:35:09.042Z,54.43
2019-03-31T10:37:36.359Z,53.82
2019-03-31T10:40:05.527Z,53.98
2019-03-31T10:42:32.950Z,53.12
2019-03-31T10:45:00.422Z,51.70
2019-03-31T10:47:27.815Z,50.79
2019-03-31T10:49:55.151Z,49.96
2019-03-31T10:52:22.498Z,48.14
2019-03-31T10:54:49.825Z,49.31
2019-03-31T10:57:17.139Z,50.38
2019-03-31T10:59:44.468Z,51.09
2019-03-31T11:02:11.794Z,52.60
2019-03-31T11:04:39.028Z,52.30
2019-03-31T11:07:06.339Z,52.48
2019-03-31T11:09:34.508Z,52.90
2019-03-31T11:12:01.914Z,53.71
2019-03-31T11:14:29.259Z,53.07
2019-03-31T11:16:56.572Z,54.42
2019-03-31T11:19:23.910Z,53.20
2019-03-31T11:22:16.597Z,51.40
2019-03-31T11:24:43.843Z,50.20
2019-03-31T11:27:11.060Z,50.33
2019-03-31T11:29:38.292Z,49.63
2019-03-31T11:32:05.577Z,49.73
2019-03-31T11:34:32.930Z,48.93
2019-03-31T11:37:12.824Z,49.74
2019-03-31T11:39:29.387Z,48.71
2019-03-31T11:41:56.599Z,47.87
2019-03-31T11:44:23.796Z,45.45
2019-03-31T11:46:51.129Z,44.81
2019-03-31T11:49:18.431Z,44.29
2019-03-31T11:51:45.665Z,42.47
2019-03-31T11:54:12.866Z,42.40
2019-03-31T11:56:40.196Z,41.30
2019-03-31T11:59:07.531Z,41.56
2019-03-31T12:01:34.752Z,42.82
2019-03-31T12:04:02.086Z,44.04
2019-03-31T12:06:29.385Z,44.49
2019-03-31T12:08:56.723Z,44.30
2019-03-31T12:11:24.059Z,43.95
2019-03-31T12:13:51.289Z,44.73
2019-03-31T12:16:18.632Z,45.19
2019-03-31T12:18:45.963Z,45.97
2019-03-31T12:21:13.188Z,46.67
2019-03-31T12:23:40.508Z,46.51
2019-03-31T12:26:07.855Z,47.23
2019-03-31T12:28:35.307Z,45.13
2019-03-31T12:31:02.623Z,45.63
2019-03-31T12:33:29.960Z,44.56
2019-03-31T12:35:57.259Z,43.79
2019-03-31T12:38:24.480Z,43.47
2019-03-31T12:40:51.722Z,43.06
2019-03-31T12:43:19.292Z,44.42
2019-03-31T12:45:46.612Z,43.67
2019-03-31T12:48:13.828Z,43.84
2019-03-31T12:50:41.061Z,43.34
2019-03-31T12:53:08.269Z,42.72
2019-03-31T12:55:35.573Z,41.99
2019-03-31T12:58:02.942Z,41.03
2019-03-31T13:00:30.213Z,40.04
2019-03-31T13:02:57.438Z,38.89
2019-03-31T13:05:24.753Z,38.21
2019-03-31T13:07:56.753Z,36.84
2019-03-31T13:10:21.298Z,33.45
2019-03-31T13:12:48.632Z,26.75
2019-03-31T13:15:15.955Z,23.36
2019-03-31T13:17:43.088Z,22.99
2019-03-31T13:20:10.698Z,20.54
2019-03-31T13:22:38.043Z,18.92
2019-03-31T13:25:05.947Z,17.93
2019-03-31T13:27:33.282Z,19.16
2019-03-31T13:30:00.519Z,21.74
2019-03-31T13:32:27.840Z,23.21
2019-03-31T13:34:55.172Z,27.13
2019-03-31T13:37:22.393Z,27.33
2019-03-31T13:39:49.713Z,25.17
2019-03-31T13:42:16.952Z,22.90
2019-03-31T13:44:44.262Z,23.45
2019-03-31T13:47:11.603Z,23.10
2019-03-31T13:49:38.807Z,25.74
2019-03-31T13:52:06.153Z,23.90
2019-03-31T13:54:33.782Z,24.00
2019-03-31T13:57:01.152Z,23.69
2019-03-31T13:59:28.557Z,22.27
2019-03-31T14:01:55.880Z,20.15
2019-03-31T14:04:23.225Z,25.04
2019-03-31T14:06:50.459Z,26.16
2019-03-31T14:09:17.655Z,27.36
2019-03-31T14:11:48.382Z,28.81
2019-03-31T14:14:14.390Z,25.00
2019-03-31T14:16:41.728Z,22.75
2019-03-31T14:19:09.047Z,23.20
2019-03-31T14:21:36.278Z,25.44
2019-03-31T14:24:03.722Z,26.56
2019-03-31T14:26:30.959Z,26.42
2019-03-31T14:28:58.196Z,27.34
2019-03-31T14:34:06.547Z,23.06
2019-03-31T14:36:33.855Z,23.13
2019-03-31T14:39:01.192Z,23.81
2019-03-31T14:41:28.511Z,24.42
2019-03-31T14:43:55.858Z,22.61
2019-03-31T14:46:23.176Z,22.10
2019-03-31T14:48:50.511Z,20.64
2019-03-31T14:51:17.730Z,20.30
2019-03-31T14:53:45.059Z,20.32
2019-03-31T14:56:12.357Z,20.35
2019-03-31T14:58:39.605Z,21.89
2019-03-31T15:01:06.917Z,22.42
2019-03-31T15:03:34.147Z,21.83
2019-03-31T15:06:01.447Z,25.16
2019-03-31T15:08:28.776Z,26.72
2019-03-31T15:10:56.087Z,28.34
2019-03-31T15:13:23.327Z,25.73
2019-03-31T15:15:50.534Z,26.65
2019-03-31T15:18:17.875Z,27.16
2019-03-31T15:20:45.198Z,26.51
2019-03-31T15:23:12.777Z,26.44
2019-03-31T15:25:43.152Z,24.32
2019-03-31T15:28:10.031Z,23.78
2019-03-31T15:30:37.268Z,23.92
2019-03-31T15:33:04.617Z,23.55
2019-03-31T15:38:14.424Z,27.18
2019-03-31T15:40:41.733Z,26.71
2019-03-31T15:43:09.065Z,25.12
2019-03-31T15:45:56.014Z,23.70
2019-03-31T15:48:24.310Z,22.46
2019-03-31T15:50:51.646Z,22.51
2019-03-31T15:53:38.229Z,23.80
2019-03-31T15:56:06.096Z,23.80
2019-03-31T15:58:33.451Z,24.16
2019-03-31T16:01:00.550Z,27.43
2019-03-31T16:03:27.760Z,28.78
2019-03-31T16:05:54.944Z,29.45
2019-03-31T16:08:21.742Z,29.88
2019-03-31T16:10:48.398Z,30.73
2019-03-31T16:13:15.203Z,30.49
2019-03-31T16:15:41.877Z,31.12
2019-03-31T16:18:08.546Z,30.15
2019-03-31T16:20:35.346Z,29.88
2019-03-31T16:23:02.028Z,30.12
2019-03-31T16:25:34.127Z,28.58
2019-03-31T16:28:00.797Z,31.73
2019-03-31T16:30:27.784Z,32.59
2019-03-31T16:32:54.554Z,35.59
2019-03-31T16:35:21.337Z,36.34
2019-03-31T16:37:48.114Z,36.16
2019-03-31T16:40:14.951Z,35.02
2019-03-31T16:42:41.726Z,35.79
2019-03-31T16:45:08.625Z,33.78
2019-03-31T16:47:35.415Z,32.93
2019-03-31T16:50:02.436Z,32.94
2019-03-31T16:52:29.120Z,32.32
2019-03-31T16:54:55.839Z,34.05
2019-03-31T16:57:22.542Z,33.84
2019-03-31T16:59:49.156Z,36.31
2019-03-31T17:02:15.831Z,37.71
2019-03-31T17:04:42.636Z,37.59
2019-03-31T17:07:09.441Z,38.59
2019-03-31T17:09:36.116Z,40.32
2019-03-31T17:12:02.925Z,40.25
2019-03-31T17:14:29.600Z,40.97
2019-03-31T17:16:56.399Z,42.37
2019-03-31T17:19:23.095Z,41.89
2019-03-31T17:21:49.780Z,42.06
2019-03-31T17:24:16.480Z,42.77
2019-03-31T17:26:43.160Z,42.87
2019-03-31T17:29:09.961Z,41.65
2019-03-31T17:31:36.739Z,41.39
2019-03-31T17:34:03.522Z,42.10
2019-03-31T17:36:30.107Z,42.28
2019-03-31T17:38:56.771Z,42.49
2019-03-31T17:41:23.474Z,42.49
2019-03-31T17:43:50.267Z,43.18
2019-03-31T17:46:16.962Z,43.71
2019-03-31T17:48:43.522Z,43.81
2019-03-31T17:51:10.617Z,44.71
2019-03-31T17:53:37.294Z,44.37
2019-03-31T17:56:05.125Z,44.09
2019-03-31T17:58:31.910Z,44.67
2019-03-31T18:00:58.611Z,44.37
2019-03-31T18:03:25.275Z,45.03
2019-03-31T18:05:52.069Z,45.57
2019-03-31T18:08:18.881Z,45.78
2019-03-31T18:10:45.560Z,46.30
2019-03-31T18:13:12.366Z,46.43
2019-03-31T18:15:39.155Z,47.03
2019-03-31T18:18:05.821Z,47.37
2019-03-31T18:20:32.518Z,47.75
2019-03-31T18:22:59.196Z,47.79
2019-03-31T18:25:25.976Z,48.46
2019-03-31T18:27:52.567Z,47.84
2019-03-31T18:30:19.464Z,48.84
2019-03-31T18:32:46.130Z,48.34
2019-03-31T18:35:16.478Z,48.58
2019-03-31T18:37:41.470Z,49.54
2019-03-31T18:40:08.256Z,50.36
2019-03-31T18:42:35.028Z,50.26
2019-03-31T18:45:01.832Z,50.79
2019-03-31T18:47:28.542Z,51.29
2019-03-31T18:49:55.330Z,51.69
2019-03-31T18:52:24.003Z,51.70
2019-03-31T18:55:03.832Z,51.67
2019-03-31T18:57:52.945Z,52.36
2019-03-31T19:00:29.234Z,52.45
2019-03-31T19:03:33.880Z,52.52
2019-03-31T19:06:25.368Z,52.90
2019-03-31T19:09:06.876Z,53.12
2019-03-31T19:11:56.134Z,53.42
2019-03-31T19:14:32.603Z,53.90
2019-03-31T19:17:17.207Z,54.51
2019-03-31T19:20:03.665Z,54.44
2019-03-31T19:22:48.567Z,54.96
2019-03-31T19:25:50.092Z,55.36
2019-03-31T19:28:33.977Z,55.42
2019-03-31T19:31:24.537Z,55.66
2019-03-31T19:34:09.730Z,56.99
2019-03-31T19:36:53.170Z,57.31
2019-03-31T19:39:45.305Z,57.18
2019-03-31T19:42:31.758Z,57.39
2019-03-31T19:45:16.753Z,57.99
2019-03-31T19:48:06.184Z,57.96
2019-03-31T19:50:48.292Z,58.78
2019-03-31T19:53:50.085Z,58.78
2019-03-31T19:56:48.612Z,58.56
2019-03-31T19:59:52.625Z,59.57
2019-03-31T20:02:50.280Z,59.57
2019-03-31T20:05:39.697Z,59.68
2019-03-31T20:08:35.302Z,60.26
2019-03-31T20:11:24.450Z,60.14
2019-03-31T20:14:04.681Z,61.02
2019-03-31T20:16:56.199Z,61.02
2019-03-31T20:19:33.902Z,61.52
2019-03-31T20:22:05.884Z,61.98
2019-03-31T20:24:58.586Z,62.60
2019-03-31T20:27:47.674Z,62.60
2019-03-31T20:30:22.919Z,63.27
2019-03-31T20:33:07.718Z,64.40
2019-03-31T20:36:09.390Z,64.22
2019-03-31T20:39:07.874Z,64.58
2019-03-31T20:41:56.695Z,65.30
2019-03-31T20:44:23.365Z,64.77
2019-03-31T20:46:49.969Z,63.95
2019-03-31T20:49:16.561Z,63.73
2019-03-31T20:51:43.275Z,63.45
2019-03-31T20:54:09.955Z,64.27
2019-03-31T20:56:36.667Z,63.93
2019-03-31T20:59:03.463Z,63.84
2019-03-31T21:01:30.124Z,64.22
2019-03-31T21:03:56.828Z,64.64
2019-03-31T21:06:23.495Z,64.28
2019-03-31T21:08:50.315Z,65.12
2019-03-31T21:11:17.019Z,65.31
2019-03-31T21:13:43.834Z,65.94
2019-03-31T21:16:10.520Z,66.09
2019-03-31T21:18:37.111Z,66.03
2019-03-31T21:21:03.896Z,66.87
2019-03-31T21:23:30.984Z,66.54
2019-03-31T21:25:57.773Z,66.84
2019-03-31T21:28:24.369Z,67.30
2019-03-31T21:30:51.172Z,67.61
2019-03-31T21:33:17.983Z,67.46
2019-03-31T21:35:44.661Z,68.01
2019-03-31T21:38:11.350Z,67.74
2019-03-31T21:40:38.119Z,68.17
2019-03-31T21:43:04.815Z,67.63
2019-03-31T21:45:31.489Z,66.89
2019-03-31T21:47:58.187Z,67.01
2019-03-31T21:50:24.967Z,67.22
2019-03-31T21:52:51.577Z,67.26
2019-03-31T21:55:18.263Z,67.14
2019-03-31T21:57:44.858Z,66.64
2019-03-31T22:00:12.136Z,66.84
2019-03-31T22:02:38.933Z,66.89
2019-03-31T22:05:05.965Z,66.72
2019-03-31T22:07:32.763Z,66.53
2019-03-31T22:09:59.337Z,67.30
2019-03-31T22:12:25.940Z,67.33
2019-03-31T22:14:52.609Z,67.95
2019-03-31T22:17:19.398Z,68.39
2019-03-31T22:19:45.985Z,68.69
2019-03-31T22:22:12.761Z,68.76
2019-03-31T22:24:39.569Z,68.95
2019-03-31T22:27:06.242Z,69.47
2019-03-31T22:29:33.121Z,69.41
2019-03-31T22:31:59.834Z,70.00
2019-03-31T22:34:26.643Z,69.81
2019-03-31T22:36:53.335Z,69.94
2019-03-31T22:39:19.989Z,70.38
2019-03-31T22:41:46.727Z,70.26
2019-03-31T22:44:13.428Z,69.85
2019-03-31T22:46:53.410Z,69.56
2019-03-31T22:49:08.619Z,69.20
2019-03-31T22:51:35.292Z,69.08
2019-03-31T22:54:02.091Z,69.58
2019-03-31T22:56:28.792Z,69.09
2019-03-31T22:58:55.497Z,69.58
2019-03-31T23:01:22.295Z,70.37
2019-03-31T23:03:49.147Z,70.23
2019-03-31T23:06:15.807Z,70.56
2019-03-31T23:08:42.580Z,70.51
2019-03-31T23:11:09.373Z,69.69
2019-03-31T23:13:35.965Z,70.09
2019-03-31T23:16:02.751Z,69.61
2019-03-31T23:18:29.446Z,70.06
2019-03-31T23:20:56.221Z,70.64
2019-03-31T23:23:23.020Z,71.27
2019-03-31T23:25:49.698Z,71.88
2019-03-31T23:28:16.418Z,71.53
2019-03-31T23:30:43.310Z,71.60
2019-03-31T23:33:10.088Z,71.41
2019-03-31T23:35:36.779Z,71.55
2019-03-31T23:38:03.457Z,71.29
2019-03-31T23:40:30.243Z,70.82
2019-03-31T23:42:56.822Z,71.73
2019-03-31T23:45:23.610Z,71.81
2019-03-31T23:47:50.384Z,71.88
2019-03-31T23:50:17.184Z,72.00
2019-03-31T23:52:43.883Z,71.70
2019-03-31T23:55:10.786Z,71.43
2019-03-31T23:57:40.950Z,71.58
